sensor_id;sensor_type;location;lat;lon;timestamp;P1;durP1;ratioP1;P2;durP2;ratioP2
73100;SDS011;61288;53.446;-2.266;2023-03-11T00:02:18;20.90;;;6.57;;
73100;SDS011;61288;53.446;-2.266;2023-03-11T00:04:43;16.25;;;6.28;;
73100;SDS011;61288;53.446;-2.266;2023-03-11T00:07:12;17.50;;;6.63;;
73100;SDS011;61288;53.446;-2.266;2023-03-11T00:09:38;17.65;;;6.97;;
73100;SDS011;61288;53.446;-2.266;2023-03-11T00:12:03;25.25;;;7.50;;
73100;SDS011;61288;53.446;-2.266;2023-03-11T00:14:29;15.48;;;5.97;;
73100;SDS011;61288;53.446;-2.266;2023-03-11T00:16:55;17.02;;;6.35;;
73100;SDS011;61288;53.446;-2.266;2023-03-11T00:19:20;20.88;;;7.22;;
73100;SDS011;61288;53.446;-2.266;2023-03-11T00:21:46;18.63;;;7.00;;
73100;SDS011;61288;53.446;-2.266;2023-03-11T00:24:12;20.10;;;6.82;;
73100;SDS011;61288;53.446;-2.266;2023-03-11T00:26:37;18.08;;;6.88;;
73100;SDS011;61288;53.446;-2.266;2023-03-11T00:29:03;16.98;;;6.10;;
73100;SDS011;61288;53.446;-2.266;2023-03-11T00:31:31;19.17;;;7.75;;
73100;SDS011;61288;53.446;-2.266;2023-03-11T00:33:56;19.33;;;6.60;;
73100;SDS011;61288;53.446;-2.266;2023-03-11T00:36:29;18.58;;;6.53;;
73100;SDS011;61288;53.446;-2.266;2023-03-11T00:38:57;18.55;;;6.40;;
73100;SDS011;61288;53.446;-2.266;2023-03-11T00:41:24;16.05;;;6.63;;
73100;SDS011;61288;53.446;-2.266;2023-03-11T00:43:50;18.23;;;6.20;;
73100;SDS011;61288;53.446;-2.266;2023-03-11T00:46:15;16.58;;;6.35;;
73100;SDS011;61288;53.446;-2.266;2023-03-11T00:48:41;18.30;;;6.50;;
73100;SDS011;61288;53.446;-2.266;2023-03-11T00:51:07;19.33;;;7.05;;
73100;SDS011;61288;53.446;-2.266;2023-03-11T00:53:37;20.33;;;6.40;;
73100;SDS011;61288;53.446;-2.266;2023-03-11T00:56:06;18.17;;;6.22;;
73100;SDS011;61288;53.446;-2.266;2023-03-11T01:01:00;15.50;;;6.03;;
73100;SDS011;61288;53.446;-2.266;2023-03-11T01:03:30;20.13;;;6.65;;
73100;SDS011;61288;53.446;-2.266;2023-03-11T01:05:56;18.92;;;7.15;;
73100;SDS011;61288;53.446;-2.266;2023-03-11T01:08:21;16.77;;;6.38;;
73100;SDS011;61288;53.446;-2.266;2023-03-11T01:10:47;19.48;;;7.05;;
73100;SDS011;61288;53.446;-2.266;2023-03-11T01:13:12;19.00;;;6.10;;
73100;SDS011;61288;53.446;-2.266;2023-03-11T01:15:38;19.63;;;7.32;;
73100;SDS011;61288;53.446;-2.266;2023-03-11T01:18:04;19.05;;;6.63;;
73100;SDS011;61288;53.446;-2.266;2023-03-11T01:20:30;19.33;;;7.05;;
73100;SDS011;61288;53.446;-2.266;2023-03-11T01:22:56;20.80;;;6.50;;
73100;SDS011;61288;53.446;-2.266;2023-03-11T01:25:22;18.40;;;7.15;;
73100;SDS011;61288;53.446;-2.266;2023-03-11T01:27:48;18.60;;;6.68;;
73100;SDS011;61288;53.446;-2.266;2023-03-11T01:30:14;17.38;;;6.95;;
73100;SDS011;61288;53.446;-2.266;2023-03-11T01:32:44;15.50;;;6.40;;
73100;SDS011;61288;53.446;-2.266;2023-03-11T01:35:11;18.10;;;6.97;;
73100;SDS011;61288;53.446;-2.266;2023-03-11T01:37:38;20.60;;;7.10;;
73100;SDS011;61288;53.446;-2.266;2023-03-11T01:40:04;18.70;;;6.07;;
73100;SDS011;61288;53.446;-2.266;2023-03-11T01:42:31;19.45;;;7.38;;
73100;SDS011;61288;53.446;-2.266;2023-03-11T01:44:57;21.33;;;6.85;;
73100;SDS011;61288;53.446;-2.266;2023-03-11T01:50:00;18.42;;;6.90;;
73100;SDS011;61288;53.446;-2.266;2023-03-11T01:52:27;18.02;;;6.10;;
73100;SDS011;61288;53.446;-2.266;2023-03-11T01:54:53;19.40;;;6.60;;
73100;SDS011;61288;53.446;-2.266;2023-03-11T01:57:18;16.38;;;6.43;;
73100;SDS011;61288;53.446;-2.266;2023-03-11T01:59:49;17.30;;;6.10;;
73100;SDS011;61288;53.446;-2.266;2023-03-11T02:02:25;17.70;;;6.03;;
73100;SDS011;61288;53.446;-2.266;2023-03-11T02:04:55;18.17;;;6.07;;
73100;SDS011;61288;53.446;-2.266;2023-03-11T02:09:51;16.92;;;5.43;;
73100;SDS011;61288;53.446;-2.266;2023-03-11T02:12:16;18.45;;;5.95;;
73100;SDS011;61288;53.446;-2.266;2023-03-11T02:14:49;16.02;;;5.55;;
73100;SDS011;61288;53.446;-2.266;2023-03-11T02:17:19;15.68;;;5.80;;
73100;SDS011;61288;53.446;-2.266;2023-03-11T02:22:43;15.82;;;6.03;;
73100;SDS011;61288;53.446;-2.266;2023-03-11T02:28:06;15.52;;;5.65;;
73100;SDS011;61288;53.446;-2.266;2023-03-11T02:30:35;15.05;;;5.65;;
73100;SDS011;61288;53.446;-2.266;2023-03-11T02:33:23;15.52;;;5.63;;
73100;SDS011;61288;53.446;-2.266;2023-03-11T02:35:53;15.73;;;5.55;;
73100;SDS011;61288;53.446;-2.266;2023-03-11T02:38:19;14.32;;;4.93;;
73100;SDS011;61288;53.446;-2.266;2023-03-11T02:40:49;16.35;;;5.68;;
73100;SDS011;61288;53.446;-2.266;2023-03-11T02:43:17;16.40;;;5.28;;
73100;SDS011;61288;53.446;-2.266;2023-03-11T02:45:47;13.95;;;6.03;;
73100;SDS011;61288;53.446;-2.266;2023-03-11T02:48:15;17.27;;;5.57;;
73100;SDS011;61288;53.446;-2.266;2023-03-11T02:50:42;14.80;;;5.68;;
73100;SDS011;61288;53.446;-2.266;2023-03-11T02:53:08;14.15;;;4.88;;
73100;SDS011;61288;53.446;-2.266;2023-03-11T02:55:34;14.73;;;5.03;;
73100;SDS011;61288;53.446;-2.266;2023-03-11T02:58:00;16.95;;;5.05;;
73100;SDS011;61288;53.446;-2.266;2023-03-11T03:00:26;17.77;;;5.50;;
73100;SDS011;61288;53.446;-2.266;2023-03-11T03:02:51;12.88;;;4.63;;
73100;SDS011;61288;53.446;-2.266;2023-03-11T03:05:21;15.27;;;5.35;;
73100;SDS011;61288;53.446;-2.266;2023-03-11T03:07:47;13.35;;;4.75;;
73100;SDS011;61288;53.446;-2.266;2023-03-11T03:10:14;13.73;;;4.78;;
73100;SDS011;61288;53.446;-2.266;2023-03-11T03:12:40;13.20;;;4.75;;
73100;SDS011;61288;53.446;-2.266;2023-03-11T03:15:06;15.82;;;4.72;;
73100;SDS011;61288;53.446;-2.266;2023-03-11T03:17:33;12.43;;;4.18;;
73100;SDS011;61288;53.446;-2.266;2023-03-11T03:19:59;17.48;;;4.88;;
73100;SDS011;61288;53.446;-2.266;2023-03-11T03:22:24;14.88;;;4.82;;
73100;SDS011;61288;53.446;-2.266;2023-03-11T03:24:52;13.82;;;4.82;;
73100;SDS011;61288;53.446;-2.266;2023-03-11T03:27:22;14.93;;;5.35;;
73100;SDS011;61288;53.446;-2.266;2023-03-11T03:29:48;18.83;;;5.25;;
73100;SDS011;61288;53.446;-2.266;2023-03-11T03:32:17;13.25;;;4.45;;
73100;SDS011;61288;53.446;-2.266;2023-03-11T03:34:43;12.52;;;4.45;;
73100;SDS011;61288;53.446;-2.266;2023-03-11T03:37:08;13.90;;;4.55;;
73100;SDS011;61288;53.446;-2.266;2023-03-11T03:39:34;12.32;;;4.95;;
73100;SDS011;61288;53.446;-2.266;2023-03-11T03:42:00;13.82;;;5.30;;
73100;SDS011;61288;53.446;-2.266;2023-03-11T03:44:28;13.18;;;4.68;;
73100;SDS011;61288;53.446;-2.266;2023-03-11T03:46:54;12.52;;;4.90;;
73100;SDS011;61288;53.446;-2.266;2023-03-11T03:49:20;12.52;;;4.18;;
73100;SDS011;61288;53.446;-2.266;2023-03-11T03:51:45;15.27;;;5.03;;
73100;SDS011;61288;53.446;-2.266;2023-03-11T03:54:11;15.02;;;5.05;;
73100;SDS011;61288;53.446;-2.266;2023-03-11T03:56:36;18.27;;;5.63;;
73100;SDS011;61288;53.446;-2.266;2023-03-11T03:59:01;13.07;;;4.95;;
73100;SDS011;61288;53.446;-2.266;2023-03-11T04:01:27;15.45;;;4.93;;
73100;SDS011;61288;53.446;-2.266;2023-03-11T04:03:55;13.25;;;4.65;;
73100;SDS011;61288;53.446;-2.266;2023-03-11T04:06:22;16.98;;;4.82;;
73100;SDS011;61288;53.446;-2.266;2023-03-11T04:08:51;15.70;;;5.18;;
73100;SDS011;61288;53.446;-2.266;2023-03-11T04:11:17;15.23;;;5.03;;
73100;SDS011;61288;53.446;-2.266;2023-03-11T04:13:43;15.85;;;4.57;;
73100;SDS011;61288;53.446;-2.266;2023-03-11T04:16:09;16.58;;;5.35;;
73100;SDS011;61288;53.446;-2.266;2023-03-11T04:18:42;17.90;;;5.13;;
73100;SDS011;61288;53.446;-2.266;2023-03-11T04:21:09;13.55;;;4.57;;
73100;SDS011;61288;53.446;-2.266;2023-03-11T04:23:35;15.48;;;4.43;;
73100;SDS011;61288;53.446;-2.266;2023-03-11T04:26:01;13.23;;;4.55;;
73100;SDS011;61288;53.446;-2.266;2023-03-11T04:28:27;14.32;;;4.63;;
73100;SDS011;61288;53.446;-2.266;2023-03-11T04:30:52;14.57;;;4.18;;
73100;SDS011;61288;53.446;-2.266;2023-03-11T04:33:18;14.23;;;4.93;;
73100;SDS011;61288;53.446;-2.266;2023-03-11T04:35:44;12.70;;;4.22;;
73100;SDS011;61288;53.446;-2.266;2023-03-11T04:38:13;12.43;;;4.15;;
73100;SDS011;61288;53.446;-2.266;2023-03-11T04:40:38;14.45;;;4.40;;
73100;SDS011;61288;53.446;-2.266;2023-03-11T04:43:04;16.20;;;4.30;;
73100;SDS011;61288;53.446;-2.266;2023-03-11T04:45:30;15.48;;;4.57;;
73100;SDS011;61288;53.446;-2.266;2023-03-11T04:47:58;14.70;;;4.50;;
73100;SDS011;61288;53.446;-2.266;2023-03-11T04:50:24;12.63;;;4.13;;
73100;SDS011;61288;53.446;-2.266;2023-03-11T04:52:49;13.77;;;4.40;;
73100;SDS011;61288;53.446;-2.266;2023-03-11T04:55:15;12.70;;;3.88;;
73100;SDS011;61288;53.446;-2.266;2023-03-11T04:57:41;14.05;;;4.03;;
73100;SDS011;61288;53.446;-2.266;2023-03-11T05:00:08;16.00;;;4.13;;
73100;SDS011;61288;53.446;-2.266;2023-03-11T05:02:36;18.13;;;4.22;;
73100;SDS011;61288;53.446;-2.266;2023-03-11T05:05:03;13.00;;;4.40;;
73100;SDS011;61288;53.446;-2.266;2023-03-11T05:07:33;14.75;;;3.97;;
73100;SDS011;61288;53.446;-2.266;2023-03-11T05:09:59;10.98;;;3.88;;
73100;SDS011;61288;53.446;-2.266;2023-03-11T05:12:25;16.08;;;4.68;;
73100;SDS011;61288;53.446;-2.266;2023-03-11T05:14:54;13.43;;;3.95;;
73100;SDS011;61288;53.446;-2.266;2023-03-11T05:17:19;14.32;;;4.55;;
73100;SDS011;61288;53.446;-2.266;2023-03-11T05:19:45;11.63;;;4.47;;
73100;SDS011;61288;53.446;-2.266;2023-03-11T05:22:10;12.98;;;4.40;;
73100;SDS011;61288;53.446;-2.266;2023-03-11T05:24:37;12.05;;;3.90;;
73100;SDS011;61288;53.446;-2.266;2023-03-11T05:27:03;10.90;;;3.78;;
73100;SDS011;61288;53.446;-2.266;2023-03-11T05:29:29;11.30;;;3.55;;
73100;SDS011;61288;53.446;-2.266;2023-03-11T05:31:56;11.65;;;3.92;;
73100;SDS011;61288;53.446;-2.266;2023-03-11T05:34:21;13.82;;;4.18;;
73100;SDS011;61288;53.446;-2.266;2023-03-11T05:36:47;12.45;;;4.38;;
73100;SDS011;61288;53.446;-2.266;2023-03-11T05:39:12;14.70;;;4.40;;
73100;SDS011;61288;53.446;-2.266;2023-03-11T05:41:38;12.13;;;4.10;;
73100;SDS011;61288;53.446;-2.266;2023-03-11T05:44:04;12.38;;;3.80;;
73100;SDS011;61288;53.446;-2.266;2023-03-11T05:46:30;13.50;;;4.50;;
73100;SDS011;61288;53.446;-2.266;2023-03-11T05:48:57;11.50;;;3.97;;
73100;SDS011;61288;53.446;-2.266;2023-03-11T05:51:26;14.25;;;3.70;;
73100;SDS011;61288;53.446;-2.266;2023-03-11T05:53:52;11.60;;;3.80;;
73100;SDS011;61288;53.446;-2.266;2023-03-11T05:56:21;11.20;;;3.58;;
73100;SDS011;61288;53.446;-2.266;2023-03-11T05:58:47;14.30;;;3.97;;
73100;SDS011;61288;53.446;-2.266;2023-03-11T06:01:14;12.38;;;4.03;;
73100;SDS011;61288;53.446;-2.266;2023-03-11T06:03:41;8.55;;;3.33;;
73100;SDS011;61288;53.446;-2.266;2023-03-11T06:06:08;9.15;;;3.22;;
73100;SDS011;61288;53.446;-2.266;2023-03-11T06:08:38;10.75;;;3.80;;
73100;SDS011;61288;53.446;-2.266;2023-03-11T06:11:05;13.40;;;3.72;;
73100;SDS011;61288;53.446;-2.266;2023-03-11T06:13:32;11.57;;;3.67;;
73100;SDS011;61288;53.446;-2.266;2023-03-11T06:15:58;13.75;;;3.20;;
73100;SDS011;61288;53.446;-2.266;2023-03-11T06:18:24;9.80;;;3.20;;
73100;SDS011;61288;53.446;-2.266;2023-03-11T06:20:51;9.77;;;3.15;;
73100;SDS011;61288;53.446;-2.266;2023-03-11T06:23:17;10.60;;;3.58;;
73100;SDS011;61288;53.446;-2.266;2023-03-11T06:25:43;10.18;;;3.35;;
73100;SDS011;61288;53.446;-2.266;2023-03-11T06:28:09;7.13;;;2.67;;
73100;SDS011;61288;53.446;-2.266;2023-03-11T06:30:35;11.20;;;3.00;;
73100;SDS011;61288;53.446;-2.266;2023-03-11T06:33:00;8.77;;;2.90;;
73100;SDS011;61288;53.446;-2.266;2023-03-11T06:35:26;10.98;;;3.22;;
73100;SDS011;61288;53.446;-2.266;2023-03-11T06:37:52;12.35;;;3.55;;
73100;SDS011;61288;53.446;-2.266;2023-03-11T06:40:17;11.02;;;3.60;;
73100;SDS011;61288;53.446;-2.266;2023-03-11T06:42:44;9.93;;;3.38;;
73100;SDS011;61288;53.446;-2.266;2023-03-11T06:45:11;9.15;;;3.10;;
73100;SDS011;61288;53.446;-2.266;2023-03-11T06:47:37;11.20;;;3.50;;
73100;SDS011;61288;53.446;-2.266;2023-03-11T06:50:02;14.40;;;3.47;;
73100;SDS011;61288;53.446;-2.266;2023-03-11T06:52:30;10.48;;;2.85;;
73100;SDS011;61288;53.446;-2.266;2023-03-11T06:54:58;9.07;;;3.08;;
73100;SDS011;61288;53.446;-2.266;2023-03-11T06:57:23;9.82;;;2.85;;
73100;SDS011;61288;53.446;-2.266;2023-03-11T06:59:48;9.93;;;3.25;;
73100;SDS011;61288;53.446;-2.266;2023-03-11T07:02:14;9.50;;;3.10;;
73100;SDS011;61288;53.446;-2.266;2023-03-11T07:04:40;10.82;;;3.15;;
73100;SDS011;61288;53.446;-2.266;2023-03-11T07:07:05;9.68;;;3.05;;
73100;SDS011;61288;53.446;-2.266;2023-03-11T07:09:31;9.80;;;3.15;;
73100;SDS011;61288;53.446;-2.266;2023-03-11T07:11:56;10.30;;;3.40;;
73100;SDS011;61288;53.446;-2.266;2023-03-11T07:14:22;8.90;;;2.80;;
73100;SDS011;61288;53.446;-2.266;2023-03-11T07:16:47;7.75;;;2.70;;
73100;SDS011;61288;53.446;-2.266;2023-03-11T07:19:13;11.77;;;3.08;;
73100;SDS011;61288;53.446;-2.266;2023-03-11T07:21:39;9.10;;;2.85;;
73100;SDS011;61288;53.446;-2.266;2023-03-11T07:24:05;9.55;;;2.78;;
73100;SDS011;61288;53.446;-2.266;2023-03-11T07:26:32;7.68;;;2.60;;
73100;SDS011;61288;53.446;-2.266;2023-03-11T07:29:00;14.27;;;2.97;;
73100;SDS011;61288;53.446;-2.266;2023-03-11T07:31:27;10.43;;;2.65;;
73100;SDS011;61288;53.446;-2.266;2023-03-11T07:33:56;11.82;;;3.10;;
73100;SDS011;61288;53.446;-2.266;2023-03-11T07:36:23;10.50;;;2.88;;
73100;SDS011;61288;53.446;-2.266;2023-03-11T07:38:59;6.85;;;2.35;;
73100;SDS011;61288;53.446;-2.266;2023-03-11T07:41:28;7.68;;;2.47;;
73100;SDS011;61288;53.446;-2.266;2023-03-11T07:43:55;8.73;;;3.03;;
73100;SDS011;61288;53.446;-2.266;2023-03-11T07:46:23;7.93;;;2.55;;
73100;SDS011;61288;53.446;-2.266;2023-03-11T07:48:50;10.02;;;2.60;;
73100;SDS011;61288;53.446;-2.266;2023-03-11T07:51:20;11.75;;;2.88;;
73100;SDS011;61288;53.446;-2.266;2023-03-11T07:53:47;10.10;;;2.92;;
73100;SDS011;61288;53.446;-2.266;2023-03-11T07:56:15;9.68;;;2.60;;
73100;SDS011;61288;53.446;-2.266;2023-03-11T07:58:41;9.07;;;2.80;;
73100;SDS011;61288;53.446;-2.266;2023-03-11T08:01:09;11.18;;;2.90;;
73100;SDS011;61288;53.446;-2.266;2023-03-11T08:03:37;8.68;;;2.50;;
73100;SDS011;61288;53.446;-2.266;2023-03-11T08:06:10;7.80;;;2.53;;
73100;SDS011;61288;53.446;-2.266;2023-03-11T08:08:38;9.07;;;2.60;;
73100;SDS011;61288;53.446;-2.266;2023-03-11T08:11:03;9.13;;;2.25;;
73100;SDS011;61288;53.446;-2.266;2023-03-11T08:13:29;8.63;;;2.40;;
73100;SDS011;61288;53.446;-2.266;2023-03-11T08:15:54;7.55;;;2.40;;
73100;SDS011;61288;53.446;-2.266;2023-03-11T08:18:20;7.63;;;2.17;;
73100;SDS011;61288;53.446;-2.266;2023-03-11T08:20:45;8.98;;;2.22;;
73100;SDS011;61288;53.446;-2.266;2023-03-11T08:23:11;8.23;;;2.30;;
73100;SDS011;61288;53.446;-2.266;2023-03-11T08:25:38;5.43;;;1.80;;
73100;SDS011;61288;53.446;-2.266;2023-03-11T08:28:06;8.05;;;2.28;;
73100;SDS011;61288;53.446;-2.266;2023-03-11T08:30:33;7.63;;;1.95;;
73100;SDS011;61288;53.446;-2.266;2023-03-11T08:32:59;7.47;;;2.03;;
73100;SDS011;61288;53.446;-2.266;2023-03-11T08:35:24;5.38;;;1.92;;
73100;SDS011;61288;53.446;-2.266;2023-03-11T08:37:51;7.88;;;2.50;;
73100;SDS011;61288;53.446;-2.266;2023-03-11T08:40:16;8.73;;;2.10;;
73100;SDS011;61288;53.446;-2.266;2023-03-11T08:42:42;6.53;;;1.80;;
73100;SDS011;61288;53.446;-2.266;2023-03-11T08:45:08;5.82;;;1.80;;
73100;SDS011;61288;53.446;-2.266;2023-03-11T08:47:34;7.80;;;2.00;;
73100;SDS011;61288;53.446;-2.266;2023-03-11T08:50:02;8.35;;;1.75;;
73100;SDS011;61288;53.446;-2.266;2023-03-11T08:52:33;5.30;;;1.73;;
73100;SDS011;61288;53.446;-2.266;2023-03-11T08:54:59;5.13;;;1.55;;
73100;SDS011;61288;53.446;-2.266;2023-03-11T08:57:24;5.72;;;1.77;;
73100;SDS011;61288;53.446;-2.266;2023-03-11T08:59:50;6.30;;;1.77;;
73100;SDS011;61288;53.446;-2.266;2023-03-11T09:02:15;5.78;;;1.80;;
73100;SDS011;61288;53.446;-2.266;2023-03-11T09:04:41;6.22;;;1.88;;
73100;SDS011;61288;53.446;-2.266;2023-03-11T09:07:06;7.05;;;1.90;;
73100;SDS011;61288;53.446;-2.266;2023-03-11T09:09:32;6.28;;;1.60;;
73100;SDS011;61288;53.446;-2.266;2023-03-11T09:11:57;7.85;;;1.83;;
73100;SDS011;61288;53.446;-2.266;2023-03-11T09:14:22;16.88;;;3.47;;
73100;SDS011;61288;53.446;-2.266;2023-03-11T09:16:48;7.20;;;2.13;;
73100;SDS011;61288;53.446;-2.266;2023-03-11T09:19:13;8.10;;;1.73;;
73100;SDS011;61288;53.446;-2.266;2023-03-11T09:21:39;10.40;;;1.95;;
73100;SDS011;61288;53.446;-2.266;2023-03-11T09:24:04;8.13;;;1.98;;
73100;SDS011;61288;53.446;-2.266;2023-03-11T09:26:31;9.63;;;2.15;;
73100;SDS011;61288;53.446;-2.266;2023-03-11T09:28:57;10.40;;;2.70;;
73100;SDS011;61288;53.446;-2.266;2023-03-11T09:31:22;6.90;;;2.28;;
73100;SDS011;61288;53.446;-2.266;2023-03-11T09:33:48;9.07;;;2.35;;
73100;SDS011;61288;53.446;-2.266;2023-03-11T09:36:17;7.55;;;2.00;;
73100;SDS011;61288;53.446;-2.266;2023-03-11T09:38:45;8.00;;;2.28;;
73100;SDS011;61288;53.446;-2.266;2023-03-11T09:43:51;8.75;;;2.28;;
73100;SDS011;61288;53.446;-2.266;2023-03-11T09:52:08;6.97;;;1.80;;
73100;SDS011;61288;53.446;-2.266;2023-03-11T09:54:37;7.05;;;2.08;;
73100;SDS011;61288;53.446;-2.266;2023-03-11T09:57:05;7.90;;;1.83;;
73100;SDS011;61288;53.446;-2.266;2023-03-11T09:59:39;7.88;;;2.20;;
73100;SDS011;61288;53.446;-2.266;2023-03-11T10:02:09;5.93;;;1.70;;
73100;SDS011;61288;53.446;-2.266;2023-03-11T10:05:25;7.97;;;1.70;;
73100;SDS011;61288;53.446;-2.266;2023-03-11T10:07:40;6.63;;;1.42;;
73100;SDS011;61288;53.446;-2.266;2023-03-11T10:10:14;6.03;;;1.42;;
73100;SDS011;61288;53.446;-2.266;2023-03-11T10:18:23;6.25;;;1.58;;
73100;SDS011;61288;53.446;-2.266;2023-03-11T10:26:19;7.90;;;1.60;;
73100;SDS011;61288;53.446;-2.266;2023-03-11T10:31:59;5.68;;;1.40;;
73100;SDS011;61288;53.446;-2.266;2023-03-11T10:37:04;5.55;;;1.50;;
73100;SDS011;61288;53.446;-2.266;2023-03-11T10:39:56;6.40;;;1.60;;
73100;SDS011;61288;53.446;-2.266;2023-03-11T10:42:32;6.40;;;1.52;;
73100;SDS011;61288;53.446;-2.266;2023-03-11T10:44:59;4.88;;;1.50;;
73100;SDS011;61288;53.446;-2.266;2023-03-11T10:47:25;5.07;;;1.70;;
73100;SDS011;61288;53.446;-2.266;2023-03-11T10:49:51;5.25;;;1.33;;
73100;SDS011;61288;53.446;-2.266;2023-03-11T10:52:17;6.00;;;2.47;;
73100;SDS011;61288;53.446;-2.266;2023-03-11T10:54:45;7.35;;;1.63;;
73100;SDS011;61288;53.446;-2.266;2023-03-11T10:59:55;6.47;;;1.48;;
73100;SDS011;61288;53.446;-2.266;2023-03-11T11:02:27;4.45;;;1.30;;
73100;SDS011;61288;53.446;-2.266;2023-03-11T11:05:39;4.35;;;1.50;;
73100;SDS011;61288;53.446;-2.266;2023-03-11T11:08:07;6.80;;;1.40;;
73100;SDS011;61288;53.446;-2.266;2023-03-11T11:10:47;7.13;;;1.52;;
73100;SDS011;61288;53.446;-2.266;2023-03-11T11:13:17;6.72;;;1.60;;
73100;SDS011;61288;53.446;-2.266;2023-03-11T11:16:04;6.70;;;1.70;;
73100;SDS011;61288;53.446;-2.266;2023-03-11T11:18:46;7.47;;;1.80;;
73100;SDS011;61288;53.446;-2.266;2023-03-11T11:21:35;5.78;;;1.73;;
73100;SDS011;61288;53.446;-2.266;2023-03-11T11:24:24;7.97;;;1.80;;
73100;SDS011;61288;53.446;-2.266;2023-03-11T11:29:35;8.63;;;2.05;;
73100;SDS011;61288;53.446;-2.266;2023-03-11T11:34:39;6.60;;;1.75;;
73100;SDS011;61288;53.446;-2.266;2023-03-11T11:37:05;7.10;;;1.80;;
73100;SDS011;61288;53.446;-2.266;2023-03-11T11:39:46;4.53;;;1.73;;
73100;SDS011;61288;53.446;-2.266;2023-03-11T11:42:20;8.95;;;1.70;;
73100;SDS011;61288;53.446;-2.266;2023-03-11T11:44:55;8.00;;;1.73;;
73100;SDS011;61288;53.446;-2.266;2023-03-11T11:47:29;5.32;;;1.63;;
73100;SDS011;61288;53.446;-2.266;2023-03-11T11:50:00;9.27;;;2.00;;
73100;SDS011;61288;53.446;-2.266;2023-03-11T11:52:34;8.00;;;1.88;;
73100;SDS011;61288;53.446;-2.266;2023-03-11T11:55:21;6.53;;;1.83;;
73100;SDS011;61288;53.446;-2.266;2023-03-11T11:57:49;5.00;;;1.70;;
73100;SDS011;61288;53.446;-2.266;2023-03-11T12:00:20;5.13;;;1.60;;
73100;SDS011;61288;53.446;-2.266;2023-03-11T12:05:29;5.75;;;1.80;;
73100;SDS011;61288;53.446;-2.266;2023-03-11T12:11:03;5.47;;;1.75;;
73100;SDS011;61288;53.446;-2.266;2023-03-11T12:16:40;6.45;;;1.73;;
73100;SDS011;61288;53.446;-2.266;2023-03-11T12:19:24;8.10;;;1.95;;
73100;SDS011;61288;53.446;-2.266;2023-03-11T12:22:23;6.15;;;1.50;;
73100;SDS011;61288;53.446;-2.266;2023-03-11T12:27:47;7.45;;;2.30;;
73100;SDS011;61288;53.446;-2.266;2023-03-11T12:30:21;6.20;;;1.65;;
73100;SDS011;61288;53.446;-2.266;2023-03-11T12:35:39;6.82;;;1.80;;
73100;SDS011;61288;53.446;-2.266;2023-03-11T12:38:30;6.88;;;2.22;;
73100;SDS011;61288;53.446;-2.266;2023-03-11T12:40:58;8.80;;;2.40;;
73100;SDS011;61288;53.446;-2.266;2023-03-11T12:43:58;6.68;;;2.15;;
73100;SDS011;61288;53.446;-2.266;2023-03-11T12:46:12;8.02;;;1.80;;
73100;SDS011;61288;53.446;-2.266;2023-03-11T12:48:48;9.00;;;2.15;;
73100;SDS011;61288;53.446;-2.266;2023-03-11T12:53:58;8.68;;;1.92;;
73100;SDS011;61288;53.446;-2.266;2023-03-11T12:56:53;8.43;;;2.05;;
73100;SDS011;61288;53.446;-2.266;2023-03-11T13:08:25;8.05;;;2.20;;
73100;SDS011;61288;53.446;-2.266;2023-03-11T13:10:37;6.72;;;2.03;;
73100;SDS011;61288;53.446;-2.266;2023-03-11T13:13:45;9.27;;;2.25;;
73100;SDS011;61288;53.446;-2.266;2023-03-11T13:18:39;10.15;;;2.60;;
73100;SDS011;61288;53.446;-2.266;2023-03-11T13:23:51;10.00;;;2.88;;
73100;SDS011;61288;53.446;-2.266;2023-03-11T13:26:42;8.18;;;2.70;;
73100;SDS011;61288;53.446;-2.266;2023-03-11T13:32:41;9.60;;;2.80;;
73100;SDS011;61288;53.446;-2.266;2023-03-11T13:37:38;8.77;;;2.90;;
73100;SDS011;61288;53.446;-2.266;2023-03-11T13:42:56;9.20;;;2.72;;
73100;SDS011;61288;53.446;-2.266;2023-03-11T13:45:31;8.98;;;2.85;;
73100;SDS011;61288;53.446;-2.266;2023-03-11T13:50:35;7.65;;;2.45;;
73100;SDS011;61288;53.446;-2.266;2023-03-11T13:53:12;9.18;;;2.80;;
73100;SDS011;61288;53.446;-2.266;2023-03-11T13:55:44;10.48;;;3.30;;
73100;SDS011;61288;53.446;-2.266;2023-03-11T13:58:20;9.23;;;2.90;;
73100;SDS011;61288;53.446;-2.266;2023-03-11T14:00:49;8.55;;;3.00;;
73100;SDS011;61288;53.446;-2.266;2023-03-11T14:03:18;10.35;;;3.47;;
73100;SDS011;61288;53.446;-2.266;2023-03-11T14:05:48;9.05;;;2.80;;
73100;SDS011;61288;53.446;-2.266;2023-03-11T14:13:36;10.32;;;3.55;;
73100;SDS011;61288;53.446;-2.266;2023-03-11T14:18:39;12.90;;;3.20;;
73100;SDS011;61288;53.446;-2.266;2023-03-11T14:21:17;10.30;;;3.22;;
73100;SDS011;61288;53.446;-2.266;2023-03-11T14:23:45;9.55;;;3.30;;
73100;SDS011;61288;53.446;-2.266;2023-03-11T14:26:17;10.55;;;3.08;;
73100;SDS011;61288;53.446;-2.266;2023-03-11T14:28:48;12.80;;;3.22;;
73100;SDS011;61288;53.446;-2.266;2023-03-11T14:33:56;11.47;;;3.43;;
73100;SDS011;61288;53.446;-2.266;2023-03-11T14:37:14;12.90;;;4.35;;
73100;SDS011;61288;53.446;-2.266;2023-03-11T14:41:46;9.95;;;3.80;;
73100;SDS011;61288;53.446;-2.266;2023-03-11T14:44:12;8.30;;;2.42;;
73100;SDS011;61288;53.446;-2.266;2023-03-11T14:46:39;5.00;;;1.65;;
73100;SDS011;61288;53.446;-2.266;2023-03-11T14:49:05;7.20;;;2.60;;
73100;SDS011;61288;53.446;-2.266;2023-03-11T14:51:36;5.65;;;2.05;;
73100;SDS011;61288;53.446;-2.266;2023-03-11T14:56:42;5.97;;;2.38;;
73100;SDS011;61288;53.446;-2.266;2023-03-11T15:01:52;9.18;;;3.35;;
73100;SDS011;61288;53.446;-2.266;2023-03-11T15:06:56;9.02;;;3.03;;
73100;SDS011;61288;53.446;-2.266;2023-03-11T15:09:23;9.70;;;3.10;;
73100;SDS011;61288;53.446;-2.266;2023-03-11T15:11:50;9.43;;;3.08;;
73100;SDS011;61288;53.446;-2.266;2023-03-11T15:16:52;12.43;;;3.05;;
73100;SDS011;61288;53.446;-2.266;2023-03-11T15:19:32;9.45;;;2.65;;
73100;SDS011;61288;53.446;-2.266;2023-03-11T15:24:51;10.52;;;3.03;;
73100;SDS011;61288;53.446;-2.266;2023-03-11T15:30:02;10.00;;;2.97;;
73100;SDS011;61288;53.446;-2.266;2023-03-11T15:32:42;7.38;;;3.08;;
73100;SDS011;61288;53.446;-2.266;2023-03-11T15:37:36;11.90;;;3.30;;
73100;SDS011;61288;53.446;-2.266;2023-03-11T15:45:39;12.25;;;3.50;;
73100;SDS011;61288;53.446;-2.266;2023-03-11T15:48:05;8.35;;;2.65;;
73100;SDS011;61288;53.446;-2.266;2023-03-11T15:50:48;13.07;;;3.90;;
73100;SDS011;61288;53.446;-2.266;2023-03-11T15:53:18;9.10;;;3.25;;
73100;SDS011;61288;53.446;-2.266;2023-03-11T15:55:45;8.73;;;3.10;;
73100;SDS011;61288;53.446;-2.266;2023-03-11T15:58:13;9.10;;;3.53;;
73100;SDS011;61288;53.446;-2.266;2023-03-11T16:00:42;11.98;;;4.22;;
73100;SDS011;61288;53.446;-2.266;2023-03-11T16:03:14;10.82;;;3.75;;
73100;SDS011;61288;53.446;-2.266;2023-03-11T16:05:40;8.70;;;3.40;;
73100;SDS011;61288;53.446;-2.266;2023-03-11T16:08:06;12.25;;;4.15;;
73100;SDS011;61288;53.446;-2.266;2023-03-11T16:10:31;9.38;;;3.47;;
73100;SDS011;61288;53.446;-2.266;2023-03-11T16:12:57;11.98;;;4.00;;
73100;SDS011;61288;53.446;-2.266;2023-03-11T16:17:59;11.82;;;3.90;;
73100;SDS011;61288;53.446;-2.266;2023-03-11T16:20:35;11.30;;;4.05;;
73100;SDS011;61288;53.446;-2.266;2023-03-11T16:23:09;10.02;;;3.63;;
73100;SDS011;61288;53.446;-2.266;2023-03-11T16:25:40;11.50;;;4.30;;
73100;SDS011;61288;53.446;-2.266;2023-03-11T16:28:06;12.85;;;3.83;;
73100;SDS011;61288;53.446;-2.266;2023-03-11T16:30:33;11.15;;;4.32;;
73100;SDS011;61288;53.446;-2.266;2023-03-11T16:32:59;15.20;;;4.50;;
73100;SDS011;61288;53.446;-2.266;2023-03-11T16:35:25;11.90;;;3.92;;
73100;SDS011;61288;53.446;-2.266;2023-03-11T16:37:52;14.38;;;4.22;;
73100;SDS011;61288;53.446;-2.266;2023-03-11T16:40:20;10.90;;;4.03;;
73100;SDS011;61288;53.446;-2.266;2023-03-11T16:42:49;14.93;;;4.38;;
73100;SDS011;61288;53.446;-2.266;2023-03-11T16:45:15;14.85;;;4.40;;